createdAt,value
2019-01-03T00:00:55.058Z,49.60
2019-01-03T00:03:28.599Z,49.40
2019-01-03T00:08:03.417Z,49.90
2019-01-03T00:10:37.795Z,49.90
2019-01-03T00:13:11.281Z,49.80
2019-01-03T00:15:44.986Z,49.80
2019-01-03T00:18:51.563Z,49.90
2019-01-03T00:21:25.355Z,50.00
2019-01-03T00:24:31.958Z,50.10
2019-01-03T00:27:05.491Z,50.10
2019-01-03T00:29:40.903Z,50.30
2019-01-03T00:32:14.375Z,50.30
2019-01-03T00:34:50.804Z,50.60
2019-01-03T00:37:24.352Z,50.70
2019-01-03T00:41:05.984Z,50.60
2019-01-03T00:43:51.412Z,50.80
2019-01-03T00:48:26.012Z,50.90
2019-01-03T00:50:59.422Z,51.00
2019-01-03T00:53:38.895Z,50.70
2019-01-03T00:56:12.542Z,51.00
2019-01-03T00:58:46.179Z,50.80
2019-01-03T01:01:19.907Z,51.50
2019-01-03T01:03:53.740Z,52.40
2019-01-03T01:06:27.378Z,51.60
2019-01-03T01:11:05.888Z,51.40
2019-01-03T01:14:09.386Z,51.10
2019-01-03T01:16:52.872Z,51.20
2019-01-03T01:19:42.257Z,51.30
2019-01-03T01:23:16.602Z,51.30
2019-01-03T01:27:54.340Z,51.40
2019-01-03T01:32:28.986Z,51.60
2019-01-03T01:35:05.489Z,51.80
2019-01-03T01:37:38.061Z,51.80
2019-01-03T01:40:12.010Z,52.00
2019-01-03T01:42:45.742Z,51.80
2019-01-03T01:45:39.181Z,51.80
2019-01-03T01:48:42.762Z,51.80
2019-01-03T01:51:16.291Z,51.60
2019-01-03T01:53:52.777Z,51.70
2019-01-03T01:56:26.431Z,51.60
2019-01-03T02:00:03.224Z,51.50
2019-01-03T02:02:36.985Z,51.60
2019-01-03T02:05:17.606Z,51.80
2019-01-03T02:07:52.942Z,51.90
2019-01-03T02:10:29.548Z,51.80
2019-01-03T02:13:03.295Z,51.70
2019-01-03T02:17:38.002Z,51.50
2019-01-03T02:20:10.834Z,51.80
2019-01-03T02:22:50.217Z,51.90
2019-01-03T02:25:25.719Z,51.90
2019-01-03T02:27:58.396Z,51.70
2019-01-03T02:30:34.047Z,51.80
2019-01-03T02:33:07.921Z,51.80
2019-01-03T02:36:44.569Z,51.80
2019-01-03T02:39:18.146Z,51.80
2019-01-03T02:41:53.786Z,51.90
2019-01-03T02:44:27.498Z,52.00
2019-01-03T02:47:01.192Z,52.10
2019-01-03T02:49:34.829Z,52.20
2019-01-03T02:52:39.459Z,52.20
2019-01-03T02:55:13.095Z,52.30
2019-01-03T02:57:57.585Z,52.40
2019-01-03T03:00:33.089Z,52.50
2019-01-03T03:03:14.603Z,52.60
2019-01-03T03:05:52.033Z,52.80
2019-01-03T03:08:36.390Z,52.80
2019-01-03T03:11:15.087Z,52.90
2019-01-03T03:13:47.868Z,52.80
2019-01-03T03:16:21.710Z,52.90
2019-01-03T03:19:11.219Z,52.80
2019-01-03T03:21:51.710Z,52.80
2019-01-03T03:24:25.312Z,52.80
2019-01-03T03:27:02.800Z,52.90
2019-01-03T03:31:38.230Z,52.80
2019-01-03T03:34:11.834Z,52.90
2019-01-03T03:36:59.379Z,53.10
2019-01-03T03:41:40.135Z,53.10
2019-01-03T03:44:16.558Z,53.10
2019-01-03T03:47:09.116Z,53.00
2019-01-03T03:49:42.743Z,53.10
2019-01-03T03:52:16.440Z,53.00
2019-01-03T03:54:56.937Z,53.20
2019-01-03T03:57:49.435Z,53.30
2019-01-03T04:02:27.077Z,53.40
2019-01-03T04:05:00.654Z,53.50
2019-01-03T04:07:34.428Z,53.80
2019-01-03T04:10:08.950Z,53.80
2019-01-03T04:12:42.898Z,53.90
2019-01-03T04:18:32.808Z,54.00
2019-01-03T04:26:51.360Z,54.30
2019-01-03T04:35:48.155Z,54.50
2019-01-03T04:49:46.941Z,54.70
2019-01-03T04:52:25.318Z,54.70
2019-01-03T04:57:49.070Z,54.80
2019-01-03T05:00:32.395Z,54.80
2019-01-03T05:03:19.403Z,54.80
2019-01-03T05:06:07.432Z,54.80
2019-01-03T05:11:42.886Z,55.00
2019-01-03T05:14:26.388Z,55.00
2019-01-03T05:17:10.805Z,54.90
2019-01-03T05:19:44.397Z,55.10
2019-01-03T05:26:33.833Z,55.20
2019-01-03T05:29:13.806Z,55.20
2019-01-03T05:38:07.280Z,55.30
2019-01-03T05:41:10.696Z,55.30
2019-01-03T05:44:47.242Z,55.50
2019-01-03T05:48:24.710Z,55.40
2019-01-03T05:51:07.352Z,55.40
2019-01-03T05:55:52.773Z,55.40
2019-01-03T05:58:44.144Z,55.30
2019-01-03T06:14:10.563Z,55.40
2019-01-03T06:16:52.686Z,55.40
2019-01-03T06:19:26.337Z,55.80
2019-01-03T06:22:11.252Z,55.90
2019-01-03T06:24:48.723Z,55.90
2019-01-03T06:27:32.393Z,56.00
2019-01-03T06:33:01.412Z,56.00
2019-01-03T06:35:41.925Z,56.10
2019-01-03T06:38:26.770Z,56.00
2019-01-03T06:41:08.914Z,56.00
2019-01-03T06:43:53.993Z,56.00
2019-01-03T06:46:28.486Z,56.00
2019-01-03T06:49:13.403Z,56.10
2019-01-03T06:51:52.836Z,56.00
2019-01-03T06:56:32.619Z,56.10
2019-01-03T06:59:35.066Z,56.00
2019-01-03T07:02:25.138Z,56.00
2019-01-03T07:06:00.622Z,56.10
2019-01-03T07:08:40.074Z,57.90
2019-01-03T07:24:06.921Z,56.60
2019-01-03T07:29:42.327Z,56.50
2019-01-03T07:35:07.285Z,56.40
2019-01-03T07:37:41.874Z,56.30
2019-01-03T07:40:16.615Z,56.30
2019-01-03T07:42:57.055Z,56.20
2019-01-03T07:45:30.629Z,56.30
2019-01-03T07:49:07.327Z,56.30
2019-01-03T07:53:42.224Z,56.20
2019-01-03T07:56:17.602Z,56.10
2019-01-03T07:58:52.070Z,56.00
2019-01-03T08:01:28.919Z,55.90
2019-01-03T08:04:14.775Z,55.80
2019-01-03T08:07:21.342Z,55.80
2019-01-03T08:09:54.902Z,55.80
2019-01-03T08:15:29.794Z,55.80
2019-01-03T08:22:29.434Z,55.80
2019-01-03T08:25:05.057Z,55.80
2019-01-03T08:38:14.647Z,56.00
2019-01-03T08:40:52.040Z,56.10
2019-01-03T08:43:38.018Z,56.10
2019-01-03T08:46:12.807Z,55.60
2019-01-03T08:49:00.501Z,55.50
2019-01-03T08:58:51.901Z,55.30
2019-01-03T09:05:40.216Z,55.10
2019-01-03T09:21:07.886Z,55.00
2019-01-03T09:23:52.868Z,53.80
2019-01-03T09:28:31.629Z,52.00
2019-01-03T09:31:09.052Z,51.40
2019-01-03T09:33:45.593Z,51.40
2019-01-03T09:36:31.433Z,51.40
2019-01-03T09:39:16.409Z,52.00
2019-01-03T09:44:43.183Z,51.10
2019-01-03T09:47:15.093Z,50.80
2019-01-03T09:52:34.813Z,50.50
2019-01-03T09:55:07.232Z,50.10
2019-01-03T09:57:39.698Z,50.00
2019-01-03T10:00:10.550Z,49.90
2019-01-03T10:02:38.831Z,49.70
2019-01-03T10:08:19.415Z,49.00
2019-01-03T10:10:44.249Z,48.60
2019-01-03T10:13:18.073Z,49.00
2019-01-03T10:15:53.186Z,49.30
2019-01-03T10:21:28.221Z,48.10
2019-01-03T10:24:15.068Z,48.30
2019-01-03T10:26:51.958Z,48.80
2019-01-03T10:29:22.797Z,48.00
2019-01-03T10:34:45.934Z,48.10
2019-01-03T10:37:19.201Z,46.90
2019-01-03T10:39:52.381Z,47.40
2019-01-03T10:42:27.153Z,47.50
2019-01-03T10:44:55.630Z,47.30
2019-01-03T10:47:33.918Z,47.80
2019-01-03T10:50:05.889Z,47.30
2019-01-03T10:55:35.805Z,46.60
2019-01-03T10:58:04.146Z,46.70
2019-01-03T11:00:38.322Z,47.00
2019-01-03T11:03:11.171Z,46.80
2019-01-03T11:05:39.461Z,46.40
2019-01-03T11:08:07.972Z,46.40
2019-01-03T11:10:48.170Z,45.90
2019-01-03T11:13:21.407Z,46.40
2019-01-03T11:15:56.722Z,46.30
2019-01-03T11:18:32.670Z,47.30
2019-01-03T11:21:07.522Z,47.20
2019-01-03T11:23:39.696Z,46.70
2019-01-03T11:26:10.069Z,47.10
2019-01-03T11:28:43.321Z,47.10
2019-01-03T11:31:15.732Z,47.10
2019-01-03T11:33:55.656Z,47.20
2019-01-03T11:36:40.340Z,47.30
2019-01-03T11:39:19.848Z,47.00
2019-01-03T11:41:52.111Z,47.30
2019-01-03T11:44:25.926Z,47.30
2019-01-03T11:46:56.390Z,47.80
2019-01-03T11:49:29.651Z,47.90
2019-01-03T11:51:58.892Z,47.90
2019-01-03T11:54:34.711Z,47.80
2019-01-03T11:57:03.201Z,47.80
2019-01-03T11:59:32.486Z,48.00
2019-01-03T12:02:01.862Z,48.30
2019-01-03T12:04:31.199Z,47.90
2019-01-03T12:07:01.473Z,48.00
2019-01-03T12:09:29.754Z,48.40
2019-01-03T12:12:05.446Z,48.20
2019-01-03T12:14:35.752Z,48.00
2019-01-03T12:17:15.901Z,47.90
2019-01-03T12:19:44.296Z,47.80
2019-01-03T12:22:20.041Z,48.30
2019-01-03T12:24:49.338Z,48.30
2019-01-03T12:27:18.666Z,48.10
2019-01-03T12:32:43.778Z,48.80
2019-01-03T12:35:18.536Z,49.10
2019-01-03T12:37:46.973Z,48.80
2019-01-03T12:40:21.714Z,48.60
2019-01-03T12:43:06.281Z,48.90
2019-01-03T12:45:42.227Z,49.00
2019-01-03T12:48:10.586Z,49.10
2019-01-03T12:50:39.909Z,49.40
2019-01-03T12:53:10.324Z,49.50
2019-01-03T12:55:45.992Z,49.90
2019-01-03T12:58:21.866Z,49.80
2019-01-03T13:00:50.352Z,49.70
2019-01-03T13:03:23.618Z,49.50
2019-01-03T13:06:08.199Z,49.70
2019-01-03T13:08:41.475Z,49.50
2019-01-03T13:11:15.711Z,49.40
2019-01-03T13:13:47.051Z,49.80
2019-01-03T13:16:16.478Z,50.10
2019-01-03T13:18:54.024Z,50.20
2019-01-03T13:21:24.391Z,50.60
2019-01-03T13:24:05.839Z,50.50
2019-01-03T13:26:36.169Z,50.40
2019-01-03T13:29:14.554Z,50.80
2019-01-03T13:31:45.194Z,50.80
2019-01-03T13:34:17.725Z,51.00
2019-01-03T13:36:48.039Z,50.90
2019-01-03T13:39:17.575Z,51.00
2019-01-03T13:41:46.129Z,51.00
2019-01-03T13:44:15.586Z,51.40
2019-01-03T13:46:51.491Z,51.50
2019-01-03T13:49:26.197Z,51.70
2019-01-03T13:51:58.525Z,51.80
2019-01-03T13:54:26.869Z,51.90
2019-01-03T13:56:55.249Z,52.10
2019-01-03T13:59:23.618Z,52.00
2019-01-03T14:01:54.048Z,52.30
2019-01-03T14:04:36.575Z,52.60
2019-01-03T14:07:05.940Z,52.80
2019-01-03T14:09:34.250Z,53.10
2019-01-03T14:12:18.766Z,53.20
2019-01-03T14:14:58.115Z,53.30
2019-01-03T14:17:41.760Z,53.80
2019-01-03T14:20:15.370Z,54.10
2019-01-03T14:22:55.997Z,54.30
2019-01-03T14:25:25.371Z,54.30
2019-01-03T14:27:58.562Z,54.30
2019-01-03T14:30:30.680Z,54.20
2019-01-03T14:33:04.597Z,54.80
2019-01-03T14:35:36.960Z,55.10
2019-01-03T14:38:13.955Z,55.30
2019-01-03T14:40:43.270Z,55.10
2019-01-03T14:43:12.643Z,55.50
2019-01-03T14:45:41.950Z,55.60
2019-01-03T14:48:11.280Z,55.60
2019-01-03T14:50:42.047Z,55.80
2019-01-03T14:53:11.394Z,55.90
2019-01-03T14:55:39.848Z,55.90
2019-01-03T14:58:13.062Z,56.10
2019-01-03T15:00:42.493Z,56.40
2019-01-03T15:03:13.267Z,56.50
2019-01-03T15:05:41.589Z,56.50
2019-01-03T15:08:18.398Z,56.60
2019-01-03T15:10:46.766Z,56.60
2019-01-03T15:13:17.056Z,56.90
2019-01-03T15:16:03.844Z,56.90
2019-01-03T15:18:34.257Z,57.50
2019-01-03T15:23:56.989Z,57.60
2019-01-03T15:26:25.401Z,58.00
2019-01-03T15:28:58.709Z,57.90
2019-01-03T15:31:28.042Z,58.00
2019-01-03T15:34:03.034Z,58.40
2019-01-03T15:36:33.513Z,58.00
2019-01-03T15:39:05.359Z,58.00
2019-01-03T15:41:34.281Z,58.40
2019-01-03T15:44:04.674Z,58.40
2019-01-03T15:46:34.277Z,58.70
2019-01-03T15:49:03.599Z,59.00
2019-01-03T15:51:35.976Z,58.80
2019-01-03T15:54:04.503Z,59.00
2019-01-03T15:56:38.782Z,59.40
2019-01-03T15:59:12.037Z,59.50
2019-01-03T16:01:52.433Z,59.00
2019-01-03T16:04:28.971Z,59.40
2019-01-03T16:09:52.261Z,59.40
2019-01-03T16:12:22.593Z,59.30
2019-01-03T16:14:56.929Z,59.20
2019-01-03T16:17:26.350Z,59.50
2019-01-03T16:19:58.894Z,59.60
2019-01-03T16:22:28.366Z,59.70
2019-01-03T16:24:57.767Z,59.60
2019-01-03T16:27:29.924Z,59.80
2019-01-03T16:30:03.640Z,59.90
2019-01-03T16:32:37.094Z,60.10
2019-01-03T16:35:14.413Z,60.40
2019-01-03T16:37:43.326Z,60.30
2019-01-03T16:40:13.746Z,60.50
2019-01-03T16:42:47.345Z,60.60
2019-01-03T16:45:22.217Z,60.30
2019-01-03T16:47:57.561Z,60.20
2019-01-03T16:50:26.101Z,60.00
2019-01-03T16:52:57.941Z,60.40
2019-01-03T16:55:31.176Z,60.90
2019-01-03T16:58:08.542Z,60.30
2019-01-03T17:00:37.007Z,60.50
2019-01-03T17:03:12.643Z,60.40
2019-01-03T17:05:43.018Z,60.90
2019-01-03T17:08:18.790Z,60.80
2019-01-03T17:10:49.161Z,60.70
2019-01-03T17:13:17.513Z,60.80
2019-01-03T17:15:51.292Z,60.70
2019-01-03T17:18:21.613Z,60.40
2019-01-03T17:20:54.077Z,60.50
2019-01-03T17:23:33.387Z,60.40
2019-01-03T17:26:01.895Z,60.20
2019-01-03T17:28:31.313Z,60.50
2019-01-03T17:31:03.219Z,60.20
2019-01-03T17:33:31.683Z,60.20
2019-01-03T17:36:00.118Z,61.00
2019-01-03T17:38:30.525Z,60.10
2019-01-03T17:40:59.985Z,58.90
2019-01-03T17:43:30.557Z,59.90
2019-01-03T17:48:57.745Z,60.40
2019-01-03T17:51:27.095Z,60.30
2019-01-03T17:54:02.520Z,60.60
2019-01-03T17:56:31.855Z,60.80
2019-01-03T17:59:05.226Z,60.80
2019-01-03T18:01:33.856Z,60.90
2019-01-03T18:04:03.671Z,61.10
2019-01-03T18:06:32.334Z,61.00
2019-01-03T18:09:00.701Z,60.90
2019-01-03T18:14:00.006Z,60.80
2019-01-03T18:16:29.542Z,60.70
2019-01-03T18:18:59.990Z,60.80
2019-01-03T18:21:30.814Z,60.60
2019-01-03T18:24:09.565Z,60.50
2019-01-03T18:26:39.840Z,60.80
2019-01-03T18:29:15.946Z,60.70
2019-01-03T18:31:48.860Z,60.70
2019-01-03T18:34:18.728Z,60.70
2019-01-03T18:36:47.503Z,60.50
2019-01-03T18:39:18.941Z,60.50
2019-01-03T18:41:48.662Z,60.70
2019-01-03T18:44:18.404Z,60.70
2019-01-03T18:46:49.657Z,60.50
2019-01-03T18:49:22.071Z,60.50
2019-01-03T18:51:51.847Z,61.00
2019-01-03T18:54:21.611Z,61.40
2019-01-03T18:56:51.506Z,60.90
2019-01-03T18:59:20.569Z,60.60
2019-01-03T19:02:00.009Z,60.80
2019-01-03T19:04:29.149Z,61.00
2019-01-03T19:07:06.179Z,61.20
2019-01-03T19:09:34.614Z,61.20
2019-01-03T19:12:04.674Z,61.10
2019-01-03T19:14:33.698Z,61.20
2019-01-03T19:17:04.168Z,60.90
2019-01-03T19:19:34.652Z,61.20
2019-01-03T19:22:03.252Z,61.00
2019-01-03T19:24:53.266Z,60.90
2019-01-03T19:27:22.851Z,61.20
2019-01-03T19:29:54.699Z,61.30
2019-01-03T19:32:23.203Z,61.10
2019-01-03T19:34:52.356Z,60.90
2019-01-03T19:37:21.534Z,61.10
2019-01-03T19:39:50.478Z,60.70
2019-01-03T19:42:20.262Z,61.00
2019-01-03T19:44:50.368Z,61.00
2019-01-03T19:47:18.667Z,61.20
2019-01-03T19:49:47.137Z,61.00
2019-01-03T19:52:15.543Z,61.00
2019-01-03T19:54:44.346Z,61.30
2019-01-03T19:57:12.668Z,61.10
2019-01-03T19:59:40.973Z,61.30
2019-01-03T20:02:09.410Z,60.90
2019-01-03T20:04:37.841Z,61.40
2019-01-03T20:07:06.289Z,61.10
2019-01-03T20:09:34.706Z,61.60
2019-01-03T20:12:04.377Z,61.50
2019-01-03T20:14:32.817Z,61.60
2019-01-03T20:17:01.243Z,61.40
2019-01-03T20:19:29.611Z,61.40
2019-01-03T20:21:57.910Z,61.10
2019-01-03T20:24:26.273Z,61.10
2019-01-03T20:26:54.642Z,61.30
2019-01-03T20:29:22.936Z,61.20
2019-01-03T20:31:51.271Z,61.00
2019-01-03T20:34:19.606Z,61.80
2019-01-03T20:36:48.971Z,61.10
2019-01-03T20:39:17.303Z,61.00
2019-01-03T20:41:45.597Z,61.00
2019-01-03T20:44:13.921Z,61.00
2019-01-03T20:46:42.231Z,61.10
2019-01-03T20:49:10.560Z,60.90
2019-01-03T20:51:43.869Z,60.90
2019-01-03T20:54:12.362Z,61.00
2019-01-03T20:56:45.709Z,61.00
2019-01-03T20:59:16.131Z,61.00
2019-01-03T21:01:44.510Z,61.10
2019-01-03T21:04:13.104Z,60.80
2019-01-03T21:06:41.815Z,61.10
2019-01-03T21:09:10.211Z,61.40
2019-01-03T21:11:38.851Z,61.40
2019-01-03T21:14:07.412Z,61.40
2019-01-03T21:16:36.770Z,61.10
2019-01-03T21:19:05.848Z,61.00
2019-01-03T21:21:34.249Z,61.00
2019-01-03T21:24:02.987Z,61.10
2019-01-03T21:26:31.424Z,61.10
2019-01-03T21:29:01.207Z,61.30
2019-01-03T21:31:29.639Z,61.40
2019-01-03T21:33:58.041Z,61.30
2019-01-03T21:36:26.805Z,61.40
2019-01-03T21:38:55.239Z,61.60
2019-01-03T21:41:23.644Z,61.50
2019-01-03T21:43:52.070Z,61.50
2019-01-03T21:46:20.420Z,61.70
2019-01-03T21:48:53.195Z,61.60
2019-01-03T21:51:21.670Z,61.50
2019-01-03T21:53:50.219Z,61.60
2019-01-03T21:56:18.565Z,61.50
2019-01-03T21:58:46.890Z,61.60
2019-01-03T22:01:21.002Z,61.50
2019-01-03T22:03:49.589Z,61.40
2019-01-03T22:06:18.060Z,61.40
2019-01-03T22:08:46.579Z,61.30
2019-01-03T22:11:15.038Z,61.30
2019-01-03T22:13:43.527Z,60.80
2019-01-03T22:16:11.999Z,61.10
2019-01-03T22:18:40.467Z,61.30
2019-01-03T22:21:08.954Z,61.60
2019-01-03T22:23:37.567Z,61.60
2019-01-03T22:28:58.345Z,61.60
2019-01-03T22:31:27.012Z,61.90
2019-01-03T22:33:55.546Z,61.80
2019-01-03T22:36:24.195Z,61.80
2019-01-03T22:38:52.567Z,61.80
2019-01-03T22:41:20.837Z,62.10
2019-01-03T22:43:49.221Z,62.10
2019-01-03T22:46:17.551Z,62.10
2019-01-03T22:48:45.922Z,61.90
2019-01-03T22:51:19.951Z,62.00
2019-01-03T22:53:44.616Z,62.10
2019-01-03T22:56:13.020Z,62.20
2019-01-03T22:58:41.309Z,62.20
2019-01-03T23:01:10.160Z,62.20
2019-01-03T23:03:39.038Z,62.30
2019-01-03T23:06:07.322Z,62.20
2019-01-03T23:08:35.615Z,62.20
2019-01-03T23:11:04.134Z,62.50
2019-01-03T23:13:32.422Z,62.40
2019-01-03T23:16:00.702Z,62.60
2019-01-03T23:18:31.446Z,62.40
2019-01-03T23:20:59.236Z,62.70
2019-01-03T23:23:27.538Z,62.70
2019-01-03T23:25:55.905Z,62.80
2019-01-03T23:28:24.179Z,62.80
2019-01-03T23:30:52.500Z,62.70
2019-01-03T23:33:20.838Z,62.90
2019-01-03T23:35:50.250Z,63.00
2019-01-03T23:38:18.782Z,62.80
2019-01-03T23:40:47.213Z,62.80
2019-01-03T23:43:15.598Z,62.70
2019-01-03T23:45:43.967Z,62.70
2019-01-03T23:48:12.394Z,62.60
2019-01-03T23:50:40.955Z,62.70
2019-01-03T23:53:10.503Z,62.80
2019-01-03T23:55:45.056Z,62.80
2019-01-03T23:58:13.350Z,62.80
